Terminal Aerodrome Forecast
Issued by NWS

Home | Current Version | Previous Version | Text Only | Print | Product List | Glossary On
Versions: 1 2 3 4 5 6 7 8 9 10 11 12 13 14 15 16 17 18 19 20 21 22
000
FTUS46 KSEW 212334
TAFPAE
TAF
KPAE 212334Z 2200/2224 32007KT P6SM VCSH SCT035
     FM220300 29006KT P6SM VCSH SCT030 OVC060
     FM220800 17006KT P6SM VCSH SCT015 BKN025 OVC050
     FM221400 17008KT 6SM -SHRA BR SCT005 BKN009 OVC015
     FM221900 18007KT P6SM VCSH SCT015 BKN025 OVC040
     FM222300 26004KT P6SM SCT030 BKN050=

USA.gov is the U.S. government's official web portal to all federal, state and local government web resources and services.